Time;durP1;ratioP1;P1;durP2;ratioP2;P2;SDS_P1;SDS_P2;PMS_P1;PMS_P2;Temp;Humidity;BMP_temperature;BMP_pressure;BME280_temperature;BME280_humidity;BME280_pressure;Samples;Min_cycle;Max_cycle;Signal;HPM_P1;HPM_P2
2021/01/14 00:00:12;;;;;;;11.63;5.82;;;;;;;1.95;59.01;98479.22;4881731;29;20040;-81
2021/01/14 00:02:38;;;;;;;11.45;5.40;;;;;;;1.94;58.86;98477.63;4877475;29;20029;-80
2021/01/14 00:05:08;;;;;;;9.88;5.63;;;;;;;1.95;58.96;98473.94;4879912;29;20416;-81
2021/01/14 00:07:34;;;;;;;10.95;5.30;;;;;;;1.95;58.87;98476.59;4884421;29;20500;-80
2021/01/14 00:10:00;;;;;;;14.27;6.03;;;;;;;1.96;58.51;98472.13;4885447;29;20514;-80
2021/01/14 00:12:26;;;;;;;13.38;6.15;;;;;;;1.95;58.84;98468.66;4884996;29;20032;-81
2021/01/14 00:14:52;;;;;;;10.45;4.97;;;;;;;1.93;58.76;98470.75;4885757;29;20025;-81
2021/01/14 00:17:17;;;;;;;11.93;6.22;;;;;;;1.93;58.98;98473.41;4884374;29;20117;-79
2021/01/14 00:19:42;;;;;;;11.07;5.80;;;;;;;1.92;58.51;98474.44;4883558;29;20561;-80
2021/01/14 00:22:08;;;;;;;11.93;5.72;;;;;;;1.90;58.89;98469.41;4883305;29;20052;-79
2021/01/14 00:24:33;;;;;;;8.50;5.05;;;;;;;1.96;58.75;98466.84;4884015;29;20032;-80
2021/01/14 00:26:59;;;;;;;13.75;6.65;;;;;;;1.97;59.02;98468.47;4883525;29;20056;-80
2021/01/14 00:29:24;;;;;;;11.93;4.82;;;;;;;1.98;58.96;98473.50;4883651;29;20071;-77
2021/01/14 00:31:50;;;;;;;13.90;6.68;;;;;;;1.99;58.59;98458.47;4882788;29;20033;-77
2021/01/14 00:34:15;;;;;;;7.55;4.63;;;;;;;2.01;58.52;98456.41;4883017;29;20032;-78
2021/01/14 00:39:27;;;;;;;12.00;6.00;;;;;;;2.02;58.39;98452.72;4900743;29;20056;-78
2021/01/14 00:41:54;;;;;;;9.18;5.90;;;;;;;2.02;57.88;98450.88;4884380;29;20028;-78
2021/01/14 00:44:19;;;;;;;7.40;3.72;;;;;;;2.02;57.92;98450.09;4882457;29;20024;-78
2021/01/14 00:46:45;;;;;;;9.32;5.40;;;;;;;2.04;58.32;98450.66;4883370;29;20429;-78
2021/01/14 00:49:11;;;;;;;11.13;5.45;;;;;;;2.05;57.70;98460.97;4884016;29;20120;-79
2021/01/14 00:51:38;;;;;;;10.63;4.40;;;;;;;2.06;58.07;98459.94;4884462;29;20131;-80
2021/01/14 00:54:06;;;;;;;7.28;4.38;;;;;;;2.08;57.93;98457.06;4884344;29;20032;-80
2021/01/14 00:56:34;;;;;;;9.20;5.70;;;;;;;2.10;57.34;98459.47;4887631;29;20033;-81
2021/01/14 01:11:54;;;;;;;11.13;4.75;;;;;;;2.11;56.58;98442.59;4882531;29;20059;-78
2021/01/14 01:15:06;;;;;;;7.93;5.57;;;;;;;2.13;56.61;98438.69;4887940;29;20029;-82
2021/01/14 01:20:39;;;;;;;14.45;5.22;;;;;;;2.15;55.99;98441.91;4900673;29;20542;-79
2021/01/14 01:23:06;;;;;;;9.55;4.75;;;;;;;2.12;55.43;98439.72;4912986;29;20081;-81
2021/01/14 01:25:53;;;;;;;9.68;4.28;;;;;;;2.07;55.60;98432.50;4901003;29;20045;-83
2021/01/14 01:38:01;;;;;;;8.30;4.28;;;;;;;2.13;54.80;98449.25;5071547;23;20063;-77
2021/01/14 01:40:28;;;;;;;14.00;4.30;;;;;;;2.15;55.18;98449.00;4900815;29;20036;-79
2021/01/14 01:42:55;;;;;;;9.95;4.05;;;;;;;2.17;54.67;98453.03;5156862;23;20036;-78
2021/01/14 01:45:20;;;;;;;9.82;4.97;;;;;;;2.13;54.19;98438.69;4900054;29;20043;-79
2021/01/14 01:54:39;;;;;;;6.93;3.55;;;;;;;2.19;53.89;98444.88;4860773;29;20056;-78
2021/01/14 01:57:05;;;;;;;10.10;3.80;;;;;;;2.17;53.08;98442.47;4842238;29;20474;-79
2021/01/14 01:59:32;;;;;;;12.15;4.65;;;;;;;2.19;53.87;98444.88;4842280;29;20464;-78
2021/01/14 02:01:58;;;;;;;5.25;3.40;;;;;;;2.20;54.07;98436.72;4842294;29;20037;-78
2021/01/14 02:04:23;;;;;;;9.40;3.45;;;;;;;2.22;53.54;98449.66;4839278;29;20056;-78
2021/01/14 02:07:00;;;;;;;6.63;3.72;;;;;;;2.23;53.36;98440.72;4841567;29;20500;-78
2021/01/14 02:09:26;;;;;;;7.57;3.35;;;;;;;2.24;53.23;98445.75;4851640;29;20057;-79
2021/01/14 02:12:03;;;;;;;8.60;3.58;;;;;;;2.29;53.04;98446.91;4841957;29;20090;-78
2021/01/14 02:14:29;;;;;;;5.80;3.63;;;;;;;2.29;53.44;98445.03;4839588;29;20041;-79
2021/01/14 02:16:55;;;;;;;7.20;4.00;;;;;;;2.29;52.77;98446.91;4823782;29;20057;-79
2021/01/14 02:19:44;;;;;;;5.50;3.25;;;;;;;2.30;52.91;98445.88;4856732;29;20037;-79
2021/01/14 02:22:41;;;;;;;3.75;2.92;;;;;;;2.28;52.30;98443.44;4863465;29;20430;-78
2021/01/14 02:25:26;;;;;;;7.18;3.40;;;;;;;2.31;52.45;98448.25;4876445;29;20045;-78
2021/01/14 02:27:53;;;;;;;6.63;3.25;;;;;;;2.31;52.77;98445.63;4880126;29;20060;-79
2021/01/14 02:30:19;;;;;;;7.55;2.70;;;;;;;2.33;52.24;98454.09;4895744;29;20502;-79
2021/01/14 02:32:44;;;;;;;6.93;3.42;;;;;;;2.33;52.34;98451.47;4895557;29;20063;-81
2021/01/14 02:35:10;;;;;;;9.80;3.05;;;;;;;2.33;51.83;98451.47;4897274;29;20037;-79
2021/01/14 02:37:59;;;;;;;5.90;3.20;;;;;;;2.32;52.02;98449.88;4880846;29;20040;-81
2021/01/14 02:40:25;;;;;;;5.93;2.78;;;;;;;2.33;51.96;98453.28;4895034;29;20039;-79
2021/01/14 02:42:50;;;;;;;5.38;2.97;;;;;;;2.33;51.83;98451.47;4879390;29;20120;-78
2021/01/14 02:45:16;;;;;;;4.50;3.10;;;;;;;2.32;52.09;98443.78;4894767;29;20064;-80
2021/01/14 02:47:46;;;;;;;6.53;3.13;;;;;;;2.32;51.88;98444.59;4881401;29;20024;-81
2021/01/14 02:50:12;;;;;;;5.55;2.70;;;;;;;2.31;51.96;98437.72;4862081;29;20025;-78
2021/01/14 02:52:40;;;;;;;4.30;2.95;;;;;;;2.30;51.26;98435.31;4869783;29;20028;-78
2021/01/14 02:55:06;;;;;;;5.00;3.00;;;;;;;2.27;51.32;98436.59;4879803;29;20035;-78
2021/01/14 02:57:32;;;;;;;8.63;4.07;;;;;;;2.23;51.06;98432.81;4879168;29;20024;-78
2021/01/14 03:00:00;;;;;;;7.65;3.35;;;;;;;2.22;51.33;98439.09;4895480;29;20454;-78
2021/01/14 03:02:27;;;;;;;5.53;3.17;;;;;;;2.18;51.48;98444.06;4879475;29;20036;-79
2021/01/14 03:04:52;;;;;;;9.18;3.22;;;;;;;2.18;51.42;98451.19;4864578;29;20946;-78
2021/01/14 03:07:18;;;;;;;5.47;2.95;;;;;;;2.14;51.41;98455.34;4890873;29;20064;-79
2021/01/14 03:09:43;;;;;;;5.20;2.88;;;;;;;2.12;51.11;98454.75;4894999;29;20039;-78
2021/01/14 03:12:09;;;;;;;5.28;3.40;;;;;;;2.05;51.00;98446.97;4896042;29;20406;-78
2021/01/14 03:14:34;;;;;;;8.05;3.30;;;;;;;2.02;51.36;98445.59;4879511;29;20036;-79
2021/01/14 03:16:59;;;;;;;7.25;3.17;;;;;;;1.99;51.17;98447.91;4880891;29;20029;-79
2021/01/14 03:19:25;;;;;;;3.70;3.00;;;;;;;1.95;51.60;98441.50;4878441;29;20024;-77
2021/01/14 03:21:50;;;;;;;4.50;2.80;;;;;;;1.96;51.42;98440.47;4879412;29;20477;-78
2021/01/14 03:24:15;;;;;;;6.68;3.08;;;;;;;1.92;51.25;98440.94;4895068;29;20044;-78
2021/01/14 03:26:41;;;;;;;4.72;2.58;;;;;;;1.91;51.65;98439.34;4879988;29;20522;-78
2021/01/14 03:29:07;;;;;;;6.47;2.53;;;;;;;1.92;51.63;98440.16;4879231;29;20040;-79
2021/01/14 03:31:32;;;;;;;6.78;2.67;;;;;;;1.90;51.70;98443.03;4897514;29;20447;-77
2021/01/14 03:33:57;;;;;;;3.83;2.90;;;;;;;1.91;51.38;98433.28;4894550;29;20505;-77
2021/01/14 03:36:23;;;;;;;8.38;3.15;;;;;;;1.92;51.36;98445.41;4896220;29;20108;-77
2021/01/14 03:38:48;;;;;;;5.60;3.10;;;;;;;1.92;51.80;98442.78;4879523;29;20028;-79
2021/01/14 03:41:18;;;;;;;5.20;2.50;;;;;;;1.91;52.07;98446.47;4880414;29;20036;-78
2021/01/14 03:43:44;;;;;;;5.18;3.85;;;;;;;1.93;51.60;98439.13;4898758;29;20093;-79
2021/01/14 03:46:15;;;;;;;8.35;3.30;;;;;;;1.95;52.12;98442.31;4883543;29;20036;-78
2021/01/14 03:48:43;;;;;;;5.85;3.67;;;;;;;1.94;51.77;98445.19;4899236;29;20036;-79
2021/01/14 03:51:18;;;;;;;5.13;3.10;;;;;;;1.93;52.10;98439.13;4898988;29;20032;-77
2021/01/14 03:53:48;;;;;;;7.05;3.60;;;;;;;1.89;51.72;98446.69;4883054;29;20051;-78
2021/01/14 03:56:14;;;;;;;7.93;4.10;;;;;;;1.89;51.70;98443.25;4874767;29;20041;-75
2021/01/14 03:58:40;;;;;;;4.70;3.22;;;;;;;1.88;52.20;98433.72;4894197;29;20040;-76
2021/01/14 04:01:06;;;;;;;5.50;2.67;;;;;;;1.87;52.07;98435.56;4874953;29;20036;-76
2021/01/14 04:03:32;;;;;;;6.13;3.40;;;;;;;1.86;51.68;98438.44;4898777;29;20482;-78
2021/01/14 04:05:57;;;;;;;7.53;3.10;;;;;;;1.84;51.90;98430.75;4897714;29;20497;-78
2021/01/14 04:08:23;;;;;;;9.52;3.40;;;;;;;1.83;52.37;98433.63;4881948;29;20041;-78
2021/01/14 04:10:48;;;;;;;5.53;3.22;;;;;;;1.80;52.37;98424.34;4883070;29;20036;-77
2021/01/14 04:13:14;;;;;;;6.18;3.17;;;;;;;1.81;52.20;98430.41;4882731;29;20040;-77
2021/01/14 04:15:40;;;;;;;5.78;2.90;;;;;;;1.78;51.60;98431.69;4896334;29;20043;-78
2021/01/14 04:18:06;;;;;;;9.18;3.08;;;;;;;1.74;52.52;98425.28;4882364;29;20047;-79
2021/01/14 04:20:31;;;;;;;5.65;3.53;;;;;;;1.73;52.33;98429.78;4882359;29;20037;-79
2021/01/14 04:22:57;;;;;;;7.97;3.60;;;;;;;1.73;51.99;98427.13;4882096;29;20426;-78
2021/01/14 04:25:30;;;;;;;6.53;3.63;;;;;;;1.73;52.13;98421.03;4882585;29;20031;-79
2021/01/14 04:27:57;;;;;;;6.32;3.20;;;;;;;1.71;52.19;98425.75;4899679;29;20047;-77
2021/01/14 04:30:23;;;;;;;6.65;2.75;;;;;;;1.69;52.95;98422.56;4898297;29;20036;-77
2021/01/14 04:32:51;;;;;;;5.35;3.38;;;;;;;1.68;52.42;98424.38;4882742;29;20028;-79
2021/01/14 04:35:17;;;;;;;5.20;3.67;;;;;;;1.68;52.95;98440.19;4897667;29;20039;-79
2021/01/14 04:37:42;;;;;;;5.78;3.25;;;;;;;1.66;52.75;98437.00;4882693;29;20037;-78
2021/01/14 04:40:08;;;;;;;7.20;3.03;;;;;;;1.65;53.04;98432.78;4883512;29;20048;-79
2021/01/14 04:42:41;;;;;;;8.70;3.22;;;;;;;1.64;52.91;98441.69;4897362;29;20119;-76
2021/01/14 04:45:07;;;;;;;7.15;3.00;;;;;;;1.60;52.35;98437.94;4897676;29;20067;-76
2021/01/14 04:47:37;;;;;;;6.60;3.45;;;;;;;1.58;52.72;98434.72;4897696;29;20548;-77
2021/01/14 04:50:02;;;;;;;7.63;3.72;;;;;;;1.56;53.22;98431.50;4882402;29;20029;-77
2021/01/14 04:52:33;;;;;;;3.70;2.95;;;;;;;1.56;52.82;98428.88;4896365;29;20055;-76
2021/01/14 04:55:02;;;;;;;6.05;3.10;;;;;;;1.51;53.06;98437.47;4897110;29;20039;-76
2021/01/14 04:57:29;;;;;;;6.28;3.30;;;;;;;1.49;53.31;98439.56;4882409;29;20115;-78
2021/01/14 05:00:02;;;;;;;8.43;3.53;;;;;;;1.49;53.43;98436.91;4895373;29;20040;-77
2021/01/14 05:02:34;;;;;;;5.50;3.53;;;;;;;1.48;52.94;98434.50;4864905;29;20400;-80
2021/01/14 05:05:03;;;;;;;6.38;3.60;;;;;;;1.42;53.16;98434.41;4874283;29;20040;-80
2021/01/14 05:08:39;;;;;;;5.90;3.28;;;;;;;1.40;53.54;98435.66;4902409;29;20040;-81
2021/01/14 05:11:53;;;;;;;9.60;3.67;;;;;;;1.35;53.78;98444.25;4761536;29;20046;-81
2021/01/14 05:15:06;;;;;;;4.32;2.95;;;;;;;1.30;54.04;98438.09;4813765;29;20045;-81
2021/01/14 05:17:32;;;;;;;8.50;4.32;;;;;;;1.22;55.64;98429.50;4882827;29;20080;-79
2021/01/14 05:19:57;;;;;;;7.93;4.45;;;;;;;1.18;56.60;98432.81;4868361;29;20065;-79
2021/01/14 05:22:24;;;;;;;5.53;3.92;;;;;;;1.10;57.22;98440.03;4881611;29;20469;-79
2021/01/14 05:25:09;;;;;;;7.28;4.22;;;;;;;1.02;57.78;98443.00;4865044;29;20040;-77
2021/01/14 05:27:36;;;;;;;8.60;4.28;;;;;;;0.95;57.97;98432.59;4864145;29;20036;-78
2021/01/14 05:30:04;;;;;;;8.90;4.80;;;;;;;0.89;58.59;98437.94;4866246;29;20430;-79
2021/01/14 05:32:42;;;;;;;9.00;5.15;;;;;;;0.84;59.13;98437.84;4865105;29;20028;-78
2021/01/14 05:35:11;;;;;;;6.47;4.22;;;;;;;0.74;59.80;98426.03;4865743;29;20080;-77
2021/01/14 05:37:43;;;;;;;13.85;6.18;;;;;;;0.73;59.78;98434.97;4880600;29;20056;-78
2021/01/14 05:40:13;;;;;;;9.35;5.30;;;;;;;0.73;60.11;98434.16;4880631;29;20025;-78
2021/01/14 05:42:40;;;;;;;10.00;5.57;;;;;;;0.62;59.38;98433.09;4882129;29;20029;-78
2021/01/14 05:45:20;;;;;;;9.43;4.40;;;;;;;0.62;59.60;98435.72;4864723;29;20116;-78
2021/01/14 05:47:46;;;;;;;5.93;3.80;;;;;;;0.59;59.29;98434.34;4880871;29;20131;-78
2021/01/14 05:50:12;;;;;;;6.93;4.38;;;;;;;0.59;59.23;98423.81;4869086;29;20075;-78
2021/01/14 05:52:38;;;;;;;6.85;3.92;;;;;;;0.60;59.03;98428.06;4886044;29;20025;-77
2021/01/14 05:55:06;;;;;;;10.65;4.57;;;;;;;0.59;59.11;98428.31;4884986;29;20032;-77
2021/01/14 05:57:40;;;;;;;5.22;3.45;;;;;;;0.60;58.63;98428.06;4881938;29;20029;-78
2021/01/14 06:00:15;;;;;;;4.82;3.83;;;;;;;0.60;58.65;98432.53;4862258;29;20041;-77
2021/01/14 06:02:41;;;;;;;11.82;4.15;;;;;;;0.63;58.46;98430.25;4878793;29;20045;-78
2021/01/14 06:05:34;;;;;;;8.68;4.63;;;;;;;0.63;58.11;98422.38;4861882;29;20025;-77
2021/01/14 06:08:01;;;;;;;10.30;5.43;;;;;;;0.63;57.60;98425.00;4878858;29;20462;-77
2021/01/14 06:10:31;;;;;;;9.15;4.65;;;;;;;0.65;57.50;98427.41;4877942;29;20043;-78
2021/01/14 06:12:57;;;;;;;6.30;4.20;;;;;;;0.63;57.08;98419.75;4862429;29;20033;-77
2021/01/14 06:15:22;;;;;;;6.55;4.22;;;;;;;0.64;57.03;98415.25;4861227;29;20043;-77
2021/01/14 06:17:49;;;;;;;7.32;4.13;;;;;;;0.67;56.91;98411.38;4861288;29;20040;-78
2021/01/14 06:20:15;;;;;;;6.20;3.83;;;;;;;0.73;56.85;98418.34;4861125;29;20055;-78
2021/01/14 06:22:43;;;;;;;9.98;4.20;;;;;;;0.79;56.50;98417.44;4876651;29;20029;-77
2021/01/14 06:25:09;;;;;;;;;;;;;;;0.88;56.56;98428.44;4877232;29;20176;-78
2021/01/14 06:27:34;;;;;;;11.93;4.65;;;;;;;0.90;55.06;98427.19;4876377;29;20380;-77
2021/01/14 06:30:07;;;;;;;7.30;4.63;;;;;;;0.95;54.89;98426.50;4861127;29;20043;-78
2021/01/14 06:32:37;;;;;;;9.32;4.53;;;;;;;1.04;55.42;98426.97;4860377;29;20085;-77
2021/01/14 06:35:07;;;;;;;9.13;4.40;;;;;;;1.14;54.80;98435.09;4860822;29;20482;-77
2021/01/14 06:37:38;;;;;;;7.70;4.30;;;;;;;1.23;54.79;98433.75;4876337;29;20047;-78
2021/01/14 06:40:06;;;;;;;6.55;3.22;;;;;;;1.35;54.61;98427.66;4876596;29;20025;-77
2021/01/14 06:42:36;;;;;;;7.00;3.88;;;;;;;1.46;54.09;98426.81;4860775;29;20032;-77
2021/01/14 06:45:09;;;;;;;4.38;3.55;;;;;;;1.58;53.64;98427.59;4876407;29;20044;-78
2021/01/14 06:47:41;;;;;;;8.88;4.00;;;;;;;1.69;53.55;98420.72;4876184;29;20109;-77
2021/01/14 06:50:18;;;;;;;5.88;3.35;;;;;;;1.83;53.24;98433.63;4876348;29;20037;-78
2021/01/14 06:52:50;;;;;;;5.70;3.63;;;;;;;1.95;52.82;98426.47;4860508;29;20096;-77
2021/01/14 06:55:17;;;;;;;6.00;3.55;;;;;;;1.99;51.37;98421.53;4861029;29;20410;-77
2021/01/14 06:57:58;;;;;;;6.00;3.58;;;;;;;2.13;51.63;98438.69;4860435;29;20410;-77
2021/01/14 07:00:25;;;;;;;7.70;3.72;;;;;;;2.20;51.12;98430.66;4875981;29;20112;-77
2021/01/14 07:03:00;;;;;;;6.15;3.50;;;;;;;2.27;51.27;98435.78;4877423;29;20040;-77
2021/01/14 07:05:37;;;;;;;6.30;3.17;;;;;;;2.37;50.40;98428.06;4875883;29;20037;-77
2021/01/14 07:08:28;;;;;;;6.20;3.40;;;;;;;2.35;50.34;98422.19;4876210;29;20131;-77
2021/01/14 07:11:23;;;;;;;5.57;3.00;;;;;;;2.45;49.71;98426.84;4860794;29;20035;-77
2021/01/14 07:13:51;;;;;;;3.13;2.53;;;;;;;2.52;50.01;98432.78;4872989;29;20165;-77
2021/01/14 07:16:19;;;;;;;8.25;3.40;;;;;;;2.48;49.32;98416.63;4861234;29;20037;-78
2021/01/14 07:18:45;;;;;;;5.05;2.80;;;;;;;2.62;49.74;98435.59;4879680;29;20388;-77
2021/01/14 07:21:35;;;;;;;7.60;3.33;;;;;;;2.68;49.21;98436.47;4879824;29;20665;-78
2021/01/14 07:24:19;;;;;;;5.30;3.42;;;;;;;2.71;49.04;98446.53;4864263;29;20025;-77
2021/01/14 07:26:55;;;;;;;3.30;3.00;;;;;;;2.71;48.51;98446.53;4863916;29;20029;-78
2021/01/14 07:29:21;;;;;;;6.80;3.88;;;;;;;2.72;47.80;98446.34;4879943;29;20540;-77
2021/01/14 07:31:51;;;;;;;5.10;3.45;;;;;;;2.78;48.78;98441.91;4880629;29;20037;-78
2021/01/14 07:34:38;;;;;;;3.67;2.35;;;;;;;2.86;48.21;98454.72;4879609;29;20124;-77
2021/01/14 07:37:05;;;;;;;7.43;2.85;;;;;;;2.84;46.67;98459.44;4864030;29;20032;-77
2021/01/14 07:39:45;;;;;;;8.40;3.83;;;;;;;2.86;47.97;98451.28;4879191;29;20498;-77
2021/01/14 07:42:24;;;;;;;5.60;3.53;;;;;;;2.92;47.55;98449.53;4863898;29;20186;-77
2021/01/14 07:45:03;;;;;;;7.32;3.55;;;;;;;2.95;46.42;98451.69;4863609;29;20047;-77
2021/01/14 07:47:33;;;;;;;4.50;2.65;;;;;;;2.94;47.10;98442.97;4878915;29;20092;-77
2021/01/14 07:50:20;;;;;;;3.47;2.47;;;;;;;2.99;46.33;98444.88;4879213;29;20064;-77
2021/01/14 07:52:47;;;;;;;4.93;2.47;;;;;;;3.00;46.68;98439.38;4878369;29;20049;-78
2021/01/14 07:55:24;;;;;;;4.53;2.53;;;;;;;3.03;45.52;98446.00;4880482;29;20085;-77
2021/01/14 07:58:01;;;;;;;7.78;3.58;;;;;;;3.06;46.43;98453.44;4878939;29;20032;-78
2021/01/14 08:00:28;;;;;;;4.53;2.37;;;;;;;3.12;46.15;98455.13;4863621;29;20025;-77
2021/01/14 08:03:08;;;;;;;5.15;2.63;;;;;;;3.19;45.64;98455.75;4879608;29;20411;-77
2021/01/14 08:06:02;;;;;;;3.80;2.38;;;;;;;3.25;45.17;98461.94;4879773;29;20056;-77
2021/01/14 08:08:31;;;;;;;2.65;1.80;;;;;;;3.29;44.98;98456.97;4879151;29;20025;-77
2021/01/14 08:11:13;;;;;;;6.03;1.98;;;;;;;3.34;44.94;98452.56;4879985;29;20037;-78
2021/01/14 08:14:06;;;;;;;2.38;1.88;;;;;;;3.46;45.18;98454.28;4879257;29;20048;-78
2021/01/14 08:16:52;;;;;;;3.40;1.98;;;;;;;3.51;44.80;98455.13;4864167;29;20456;-77
2021/01/14 08:19:29;;;;;;;3.60;1.98;;;;;;;3.54;44.01;98445.94;4880340;29;20037;-77
2021/01/14 08:21:57;;;;;;;5.88;2.13;;;;;;;3.55;44.64;98442.22;4863436;29;20586;-77
2021/01/14 08:24:56;;;;;;;4.53;1.77;;;;;;;3.61;45.09;98445.75;4863917;29;20128;-77
2021/01/14 08:27:21;;;;;;;5.53;2.75;;;;;;;3.65;44.53;98442.38;4863213;29;20033;-78
2021/01/14 08:30:04;;;;;;;3.25;2.30;;;;;;;3.70;44.51;98444.28;4863058;29;20482;-77
2021/01/14 08:32:35;;;;;;;2.28;1.85;;;;;;;3.71;44.43;98447.72;4862785;29;20093;-77
2021/01/14 08:35:04;;;;;;;5.28;2.67;;;;;;;3.76;44.74;98448.59;4863273;29;20557;-77
2021/01/14 08:37:58;;;;;;;3.10;2.28;;;;;;;3.80;45.37;98454.19;4878299;29;20028;-76
2021/01/14 08:40:23;;;;;;;5.93;1.75;;;;;;;3.85;44.37;98447.09;4878754;29;20071;-76
2021/01/14 08:43:21;;;;;;;4.18;1.90;;;;;;;3.96;44.14;98447.25;4862706;29;20056;-77
2021/01/14 08:45:47;;;;;;;4.82;1.77;;;;;;;4.04;44.71;98441.50;4878298;29;20033;-76
2021/01/14 08:48:32;;;;;;;4.72;1.88;;;;;;;4.13;44.07;98444.50;4863242;29;20047;-76
2021/01/14 08:50:58;;;;;;;2.05;1.23;;;;;;;4.15;43.00;98445.88;4878229;29;20041;-76
2021/01/14 08:53:37;;;;;;;3.40;1.92;;;;;;;4.21;42.75;98444.09;4879816;29;20029;-76
2021/01/14 08:56:08;;;;;;;2.83;1.88;;;;;;;4.23;42.55;98443.81;4862833;29;20101;-76
2021/01/14 08:58:39;;;;;;;3.42;2.17;;;;;;;4.20;42.53;98436.38;4877833;29;20468;-77
2021/01/14 09:01:22;;;;;;;7.45;2.42;;;;;;;4.26;42.37;98436.19;4878446;29;20132;-76
2021/01/14 09:03:48;;;;;;;2.90;1.38;;;;;;;4.31;42.40;98443.38;4862704;29;20058;-76
2021/01/14 09:06:15;;;;;;;3.85;1.30;;;;;;;4.40;42.02;98431.28;4862517;29;20036;-76
2021/01/14 09:08:41;;;;;;;1.10;0.80;;;;;;;4.47;41.98;98429.22;4877555;29;20029;-76
2021/01/14 09:11:07;;;;;;;2.85;1.65;;;;;;;4.56;41.31;98428.78;4862506;29;20089;-76
2021/01/14 09:13:33;;;;;;;4.72;2.30;;;;;;;4.57;41.49;98414.50;4878172;29;20191;-76
2021/01/14 09:16:07;;;;;;;3.05;1.52;;;;;;;4.65;40.66;98427.25;4877757;29;20033;-76
2021/01/14 09:18:34;;;;;;;5.55;2.25;;;;;;;4.69;40.11;98422.25;4878748;29;20089;-76
2021/01/14 09:21:00;;;;;;;2.15;1.10;;;;;;;4.70;39.16;98424.66;4862347;29;20040;-76
2021/01/14 09:23:34;;;;;;;2.47;1.10;;;;;;;4.71;39.91;98413.03;4862302;29;20052;-75
2021/01/14 09:26:02;;;;;;;2.15;0.93;;;;;;;4.77;39.70;98398.78;4877276;29;20041;-76
2021/01/14 09:28:29;;;;;;;4.57;1.60;;;;;;;4.79;39.93;98390.56;4878034;29;20040;-76
2021/01/14 09:31:00;;;;;;;2.55;1.13;;;;;;;4.86;40.26;98385.03;4877914;29;20273;-76
2021/01/14 09:33:34;;;;;;;6.97;1.83;;;;;;;4.98;40.32;98385.66;4877645;29;20033;-75
2021/01/14 09:36:06;;;;;;;2.15;1.17;;;;;;;5.08;39.50;98385.72;4877580;29;20029;-75
2021/01/14 09:38:44;;;;;;;4.10;2.30;;;;;;;5.19;39.65;98377.81;4876592;29;20033;-76
2021/01/14 09:41:09;;;;;;;5.97;2.92;;;;;;;5.20;38.47;98374.94;4862001;29;20035;-75
2021/01/14 09:43:39;;;;;;;2.35;1.67;;;;;;;5.23;38.80;98360.34;4878478;29;20066;-76
2021/01/14 09:46:10;;;;;;;3.15;1.17;;;;;;;5.27;38.83;98359.59;4878536;29;20053;-76
2021/01/14 09:48:36;;;;;;;1.05;0.95;;;;;;;5.27;37.67;98351.63;4876921;29;20052;-76
2021/01/14 09:51:07;;;;;;;1.90;1.40;;;;;;;5.28;37.05;98358.53;4878358;29;20109;-76
2021/01/14 09:53:33;;;;;;;1.33;1.23;;;;;;;5.33;37.84;98341.84;4861436;29;20040;-76
2021/01/14 09:55:59;;;;;;;1.58;0.85;;;;;;;5.35;38.33;98342.38;4876989;29;20025;-76
2021/01/14 09:58:28;;;;;;;1.83;1.20;;;;;;;5.41;38.30;98337.91;4876942;29;20461;-76
2021/01/14 10:00:55;;;;;;;1.92;1.35;;;;;;;5.43;37.25;98335.78;4876717;29;20563;-76
2021/01/14 10:03:22;;;;;;;2.72;1.02;;;;;;;5.44;37.67;98340.84;4877203;29;20033;-76
2021/01/14 10:05:50;;;;;;;1.73;0.98;;;;;;;5.46;37.09;98335.28;4877537;29;20406;-76
2021/01/14 10:08:24;;;;;;;1.75;1.00;;;;;;;5.41;36.37;98328.09;4878690;29;20044;-75
2021/01/14 10:10:51;;;;;;;2.05;1.15;;;;;;;5.36;36.46;98329.91;4861468;29;20509;-76
2021/01/14 10:13:16;;;;;;;2.17;1.00;;;;;;;5.34;36.95;98329.41;4878611;29;20067;-75
2021/01/14 10:15:43;;;;;;;4.38;1.63;;;;;;;5.26;37.37;98336.78;4878646;29;20032;-75
2021/01/14 10:18:27;;;;;;;1.98;1.15;;;;;;;5.17;37.96;98335.66;4877713;29;20109;-76
2021/01/14 10:21:03;;;;;;;1.63;0.90;;;;;;;5.10;38.41;98329.78;4879319;29;20029;-76
2021/01/14 10:23:29;;;;;;;1.98;1.45;;;;;;;5.00;38.44;98303.25;4863396;29;20040;-75
2021/01/14 10:25:55;;;;;;;5.22;2.08;;;;;;;4.96;38.58;98306.41;4879908;29;20029;-76
2021/01/14 10:28:22;;;;;;;5.70;2.60;;;;;;;4.84;39.21;98279.31;4883197;29;20475;-76
2021/01/14 10:30:49;;;;;;;2.47;1.73;;;;;;;4.84;40.23;98267.94;4868039;29;20033;-75
2021/01/14 10:33:15;;;;;;;3.47;2.08;;;;;;;4.75;40.29;98251.75;4881821;29;20032;-75
2021/01/14 10:35:40;;;;;;;3.15;2.08;;;;;;;4.75;41.45;98246.44;4864860;29;20033;-75
2021/01/14 10:38:14;;;;;;;2.22;2.00;;;;;;;4.70;41.50;98238.44;4876098;29;20411;-76
2021/01/14 10:40:48;;;;;;;4.68;1.63;;;;;;;4.68;40.88;98229.97;4876093;29;20036;-76
2021/01/14 10:43:14;;;;;;;3.75;2.50;;;;;;;4.62;42.02;98229.16;4876168;29;20041;-76
2021/01/14 10:45:41;;;;;;;4.97;2.58;;;;;;;4.63;42.13;98220.94;4876023;29;20112;-76
2021/01/14 10:48:14;;;;;;;3.20;2.20;;;;;;;4.60;41.80;98205.56;4877720;29;20045;-76
2021/01/14 10:50:53;;;;;;;2.55;1.83;;;;;;;4.64;41.50;98201.34;4860680;29;20033;-76
2021/01/14 10:53:33;;;;;;;3.95;1.80;;;;;;;4.72;40.94;98183.38;4876043;29;20029;-76
2021/01/14 10:56:08;;;;;;;2.80;1.83;;;;;;;4.70;39.54;98172.22;4860742;29;20040;-76
2021/01/14 10:58:40;;;;;;;3.78;1.90;;;;;;;4.73;40.10;98161.91;4875903;29;20422;-75
2021/01/14 11:01:15;;;;;;;3.78;2.08;;;;;;;4.78;40.33;98158.50;4876312;29;20048;-75
2021/01/14 11:03:41;;;;;;;2.47;1.85;;;;;;;4.84;40.54;98151.38;4860364;29;20033;-76
2021/01/14 11:06:06;;;;;;;4.72;2.05;;;;;;;4.87;40.69;98127.81;4860431;29;20033;-75
2021/01/14 11:08:42;;;;;;;4.82;1.92;;;;;;;4.90;39.85;98116.66;4875995;29;20028;-77
2021/01/14 11:11:12;;;;;;;5.70;2.35;;;;;;;4.94;39.65;98117.75;4860553;29;20040;-75
2021/01/14 11:13:42;;;;;;;3.05;2.35;;;;;;;4.96;40.48;98104.25;4875758;29;20551;-76
2021/01/14 11:16:10;;;;;;;2.78;2.00;;;;;;;5.03;40.56;98080.13;4875993;29;20510;-75
2021/01/14 11:18:46;;;;;;;1.88;1.55;;;;;;;5.06;39.78;98072.44;4860034;29;20040;-77
2021/01/14 11:21:14;;;;;;;3.30;1.58;;;;;;;5.09;39.04;98084.38;4876949;29;20503;-76
2021/01/14 11:23:40;;;;;;;4.85;2.22;;;;;;;5.16;38.42;98079.59;4860242;29;20029;-75
2021/01/14 11:26:06;;;;;;;3.13;1.65;;;;;;;5.20;38.14;98082.53;4877165;29;20035;-76
2021/01/14 11:28:38;;;;;;;3.53;1.23;;;;;;;5.27;38.10;98075.94;4875946;29;20032;-75
2021/01/14 11:31:03;;;;;;;1.20;1.10;;;;;;;5.32;37.03;98074.31;4875827;29;20026;-77
2021/01/14 11:33:29;;;;;;;4.82;1.90;;;;;;;5.33;37.62;98075.91;4876876;29;20029;-77
2021/01/14 11:35:54;;;;;;;4.13;2.75;;;;;;;5.39;38.25;98077.50;4875752;29;20044;-77
2021/01/14 11:38:20;;;;;;;3.63;1.92;;;;;;;5.37;38.27;98075.13;4860232;29;20064;-77
2021/01/14 11:40:50;;;;;;;6.80;3.15;;;;;;;5.31;40.02;98075.38;4875461;29;20044;-76
2021/01/14 11:43:16;;;;;;;5.10;2.85;;;;;;;5.33;40.49;98094.47;4859875;29;20033;-78
2021/01/14 11:45:41;;;;;;;3.08;2.08;;;;;;;5.23;39.29;98090.75;4860087;29;20031;-77
2021/01/14 11:48:08;;;;;;;7.50;1.70;;;;;;;5.14;39.92;98092.34;4860195;29;20037;-76
2021/01/14 11:50:33;;;;;;;4.15;2.50;;;;;;;5.01;40.17;98092.88;4875658;29;20029;-77
2021/01/14 11:52:59;;;;;;;7.35;3.10;;;;;;;4.95;40.02;98087.53;4859787;29;20047;-75
2021/01/14 11:55:24;;;;;;;4.10;1.92;;;;;;;4.86;39.70;98086.47;4860162;29;20033;-76
2021/01/14 11:57:50;;;;;;;8.30;3.40;;;;;;;4.79;41.50;98083.28;4876851;29;20060;-75
2021/01/14 12:00:16;;;;;;;3.47;1.98;;;;;;;4.76;41.02;98076.66;4860170;29;20127;-76
2021/01/14 12:02:42;;;;;;;5.45;2.13;;;;;;;4.73;40.83;98061.25;4861094;29;20029;-76
2021/01/14 12:05:08;;;;;;;3.38;1.63;;;;;;;4.73;41.96;98048.03;4880234;29;20097;-77
2021/01/14 12:07:33;;;;;;;2.75;1.80;;;;;;;4.69;40.72;98044.31;4878926;29;20384;-77
2021/01/14 12:09:59;;;;;;;3.53;2.40;;;;;;;4.69;40.82;98046.97;4863179;29;20048;-77
2021/01/14 12:12:24;;;;;;;6.00;2.03;;;;;;;4.69;41.16;98067.34;4878748;29;20120;-77
2021/01/14 12:14:50;;;;;;;3.30;2.40;;;;;;;4.67;40.91;98066.81;4878503;29;20563;-76
2021/01/14 12:17:15;;;;;;;3.50;2.10;;;;;;;4.66;41.76;98071.31;4863324;29;20478;-77
2021/01/14 12:19:41;;;;;;;4.50;1.50;;;;;;;4.68;42.46;98071.84;4879421;29;20040;-77
2021/01/14 12:22:06;;;;;;;3.22;1.73;;;;;;;4.70;42.92;98072.41;4878467;29;20037;-77
2021/01/14 12:24:32;;;;;;;3.28;1.90;;;;;;;4.71;42.57;98066.03;4863206;29;20033;-75
2021/01/14 12:26:59;;;;;;;1.92;1.13;;;;;;;4.68;41.73;98065.78;4878537;29;20044;-76
2021/01/14 12:29:25;;;;;;;4.55;1.95;;;;;;;4.68;42.19;98065.78;4879858;29;20478;-75
2021/01/14 12:31:51;;;;;;;4.70;1.90;;;;;;;4.75;41.88;98061.03;4877985;29;20058;-77